createdAt,value
2023-05-20T00:01:26.603Z,3.73
2023-05-20T00:03:55.137Z,2.93
2023-05-20T00:06:23.613Z,2.93
2023-05-20T00:08:53.316Z,3.10
2023-05-20T00:11:21.673Z,2.90
2023-05-20T00:13:50.070Z,2.70
2023-05-20T00:16:18.451Z,3.30
2023-05-20T00:18:46.939Z,3.37
2023-05-20T00:21:15.366Z,2.67
2023-05-20T00:23:44.260Z,3.60
2023-05-20T00:26:14.032Z,3.10
2023-05-20T00:28:42.355Z,3.73
2023-05-20T00:31:10.727Z,2.77
2023-05-20T00:33:39.045Z,3.40
2023-05-20T00:36:08.117Z,3.50
2023-05-20T00:38:36.550Z,3.27
2023-05-20T00:41:04.897Z,3.43
2023-05-20T00:43:34.595Z,3.93
2023-05-20T00:46:04.127Z,3.40
2023-05-20T00:48:38.854Z,3.53
2023-05-20T00:51:07.741Z,3.23
2023-05-20T00:53:36.195Z,3.50
2023-05-20T00:56:05.005Z,3.77
2023-05-20T00:58:36.689Z,3.37
2023-05-20T01:01:05.345Z,3.50
2023-05-20T01:03:34.197Z,3.77
2023-05-20T01:06:03.327Z,3.20
2023-05-20T01:08:32.306Z,3.40
2023-05-20T01:11:05.048Z,3.20
2023-05-20T01:13:38.069Z,3.70
2023-05-20T01:16:07.185Z,3.50
2023-05-20T01:18:35.619Z,3.93
2023-05-20T01:21:04.744Z,3.77
2023-05-20T01:23:38.892Z,4.13
2023-05-20T01:26:07.465Z,3.60
2023-05-20T01:28:36.012Z,3.90
2023-05-20T01:31:05.555Z,3.60
2023-05-20T01:33:34.594Z,3.47
2023-05-20T01:36:03.008Z,3.77
2023-05-20T01:38:31.380Z,3.67
2023-05-20T01:41:01.184Z,3.70
2023-05-20T01:43:29.572Z,4.30
2023-05-20T01:45:58.103Z,3.50
2023-05-20T01:48:26.466Z,4.00
2023-05-20T01:50:54.868Z,4.13
2023-05-20T01:53:23.207Z,4.90
2023-05-20T01:55:51.632Z,3.43
2023-05-20T01:58:21.373Z,4.00
2023-05-20T02:00:52.150Z,4.53
2023-05-20T02:03:20.628Z,3.93
2023-05-20T02:05:49.120Z,3.30
2023-05-20T02:08:17.578Z,3.70
2023-05-20T02:10:45.955Z,4.10
2023-05-20T02:13:14.326Z,3.40
2023-05-20T02:15:44.902Z,3.83
2023-05-20T02:18:14.126Z,4.13
2023-05-20T02:20:42.744Z,3.83
2023-05-20T02:23:11.182Z,3.33
2023-05-20T02:25:39.564Z,3.70
2023-05-20T02:28:10.643Z,4.00
2023-05-20T02:30:39.229Z,3.80
2023-05-20T02:33:09.845Z,3.90
2023-05-20T02:35:38.497Z,4.33
2023-05-20T02:38:06.938Z,3.40
2023-05-20T02:40:35.339Z,3.70
2023-05-20T02:43:04.108Z,3.63
2023-05-20T02:45:32.494Z,3.40
2023-05-20T02:48:01.475Z,3.53
2023-05-20T02:50:31.332Z,3.80
2023-05-20T02:52:59.741Z,3.90
2023-05-20T02:55:28.368Z,4.20
2023-05-20T02:57:56.778Z,3.80
2023-05-20T03:00:25.390Z,3.60
2023-05-20T03:02:53.857Z,4.27
2023-05-20T03:05:22.719Z,4.50
2023-05-20T03:07:52.484Z,4.80
2023-05-20T03:10:21.101Z,4.40
2023-05-20T03:12:49.596Z,4.60
2023-05-20T03:15:18.105Z,4.20
2023-05-20T03:17:46.532Z,4.20
2023-05-20T03:20:16.715Z,4.20
2023-05-20T03:22:45.039Z,4.07
2023-05-20T03:25:15.207Z,3.60
2023-05-20T03:27:44.780Z,4.10
2023-05-20T03:30:14.235Z,4.60
2023-05-20T03:32:42.664Z,4.83
2023-05-20T03:35:11.334Z,4.00
2023-05-20T03:37:39.936Z,4.07
2023-05-20T03:40:10.460Z,4.10
2023-05-20T03:42:40.574Z,4.37
2023-05-20T03:45:10.437Z,5.27
2023-05-20T03:47:38.847Z,3.53
2023-05-20T03:50:08.861Z,4.00
2023-05-20T03:52:37.199Z,4.50
2023-05-20T03:55:06.446Z,4.13
2023-05-20T03:57:36.542Z,4.23
2023-05-20T04:00:11.324Z,3.80
2023-05-20T04:02:39.682Z,4.40
2023-05-20T04:05:10.355Z,3.70
2023-05-20T04:07:38.740Z,4.50
2023-05-20T04:10:08.765Z,4.43
2023-05-20T04:12:38.353Z,4.63
2023-05-20T04:15:10.398Z,4.87
2023-05-20T04:17:40.466Z,4.53
2023-05-20T04:20:10.224Z,4.43
2023-05-20T04:22:39.529Z,5.20
2023-05-20T04:25:09.874Z,5.27
2023-05-20T04:27:39.702Z,4.10
2023-05-20T04:30:10.575Z,4.10
2023-05-20T04:32:39.101Z,3.90
2023-05-20T04:35:11.898Z,4.40
2023-05-20T04:37:42.412Z,4.60
2023-05-20T04:40:13.661Z,4.70
2023-05-20T04:42:43.668Z,3.97
2023-05-20T04:45:13.877Z,4.07
2023-05-20T04:47:42.574Z,5.93
2023-05-20T04:50:11.869Z,5.07
2023-05-20T04:52:40.298Z,4.73
2023-05-20T04:55:10.835Z,4.10
2023-05-20T04:57:42.042Z,4.40
2023-05-20T05:00:13.839Z,5.13
2023-05-20T05:02:42.323Z,4.73
2023-05-20T05:05:11.209Z,4.70
2023-05-20T05:07:39.588Z,4.70
2023-05-20T05:10:09.334Z,4.20
2023-05-20T05:12:37.746Z,4.97
2023-05-20T05:15:07.807Z,4.60
2023-05-20T05:17:37.622Z,4.30
2023-05-20T05:20:08.620Z,4.70
2023-05-20T05:22:39.730Z,5.00
2023-05-20T05:25:09.476Z,4.63
2023-05-20T05:27:37.878Z,4.90
2023-05-20T05:30:08.003Z,4.80
2023-05-20T05:32:38.715Z,5.10
2023-05-20T05:35:08.476Z,4.70
2023-05-20T05:37:36.949Z,5.17
2023-05-20T05:40:06.307Z,5.27
2023-05-20T05:42:34.748Z,4.57
2023-05-20T05:45:03.254Z,5.40
2023-05-20T05:47:32.801Z,5.80
2023-05-20T05:50:03.051Z,5.43
2023-05-20T05:52:31.437Z,5.10
2023-05-20T05:55:00.028Z,5.13
2023-05-20T05:57:28.530Z,5.03
2023-05-20T05:59:56.906Z,4.70
2023-05-20T06:02:25.485Z,5.87
2023-05-20T06:04:53.817Z,5.20
2023-05-20T06:07:25.203Z,6.00
2023-05-20T06:09:53.592Z,6.07
2023-05-20T06:12:22.016Z,4.87
2023-05-20T06:14:50.524Z,5.10
2023-05-20T06:17:18.853Z,5.20
2023-05-20T06:19:47.306Z,5.23
2023-05-20T06:22:15.775Z,5.87
2023-05-20T06:24:45.484Z,5.30
2023-05-20T06:27:13.968Z,5.50
2023-05-20T06:29:43.757Z,5.77
2023-05-20T06:32:12.383Z,5.20
2023-05-20T06:34:41.290Z,5.67
2023-05-20T06:37:09.668Z,5.23
2023-05-20T06:39:38.145Z,6.60
2023-05-20T06:42:08.199Z,5.47
2023-05-20T06:44:36.538Z,5.67
2023-05-20T06:47:05.097Z,6.00
2023-05-20T06:49:33.520Z,5.57
2023-05-20T06:52:01.835Z,6.20
2023-05-20T06:54:30.166Z,5.73
2023-05-20T06:56:58.557Z,5.20
2023-05-20T06:59:28.298Z,5.13
2023-05-20T07:01:56.619Z,5.30
2023-05-20T07:04:27.541Z,5.37
2023-05-20T07:06:55.965Z,6.00
2023-05-20T07:09:24.436Z,5.63
2023-05-20T07:11:52.803Z,5.00
2023-05-20T07:14:21.243Z,5.70
2023-05-20T07:16:51.347Z,4.80
2023-05-20T07:19:19.817Z,5.90
2023-05-20T07:21:49.728Z,5.23
2023-05-20T07:24:18.142Z,4.80
2023-05-20T07:26:46.574Z,4.80
2023-05-20T07:29:15.176Z,4.73
2023-05-20T07:31:43.680Z,4.90
2023-05-20T07:34:13.534Z,5.90
2023-05-20T07:36:41.900Z,5.40
2023-05-20T07:39:13.454Z,5.00
2023-05-20T07:41:43.471Z,5.70
2023-05-20T07:44:13.093Z,5.30
2023-05-20T07:46:41.853Z,5.43
2023-05-20T07:49:10.501Z,5.07
2023-05-20T07:51:40.225Z,5.10
2023-05-20T07:54:09.078Z,5.23
2023-05-20T07:56:37.376Z,5.07
2023-05-20T07:59:05.846Z,5.63
2023-05-20T08:01:34.743Z,5.13
2023-05-20T08:04:03.921Z,6.63
2023-05-20T08:06:33.162Z,4.90
2023-05-20T08:09:02.986Z,5.50
2023-05-20T08:11:31.342Z,5.80
2023-05-20T08:13:59.618Z,5.70
2023-05-20T08:16:28.326Z,4.40
2023-05-20T08:18:56.844Z,7.43
2023-05-20T08:21:25.176Z,5.73
2023-05-20T08:23:53.565Z,5.00
2023-05-20T08:26:23.398Z,5.80
2023-05-20T08:28:51.787Z,5.00
2023-05-20T08:31:20.226Z,5.23
2023-05-20T08:33:49.051Z,5.23
2023-05-20T08:36:19.435Z,4.70
2023-05-20T08:38:47.796Z,5.07
2023-05-20T08:41:16.151Z,5.33
2023-05-20T08:43:46.037Z,5.30
2023-05-20T08:46:16.187Z,4.57
2023-05-20T08:48:45.899Z,5.60
2023-05-20T08:51:14.313Z,4.87
2023-05-20T08:53:42.649Z,4.73
2023-05-20T08:56:11.093Z,5.00
2023-05-20T08:58:39.412Z,5.23
2023-05-20T09:01:09.535Z,4.90
2023-05-20T09:03:37.830Z,5.70
2023-05-20T09:06:06.828Z,5.30
2023-05-20T09:08:35.333Z,6.23
2023-05-20T09:11:03.749Z,5.17
2023-05-20T09:13:32.669Z,6.07
2023-05-20T09:16:02.039Z,6.00
2023-05-20T09:18:31.880Z,6.80
2023-05-20T09:21:05.727Z,7.00
2023-05-20T09:23:34.058Z,6.83
2023-05-20T09:26:03.383Z,6.50
2023-05-20T09:28:31.708Z,8.30
2023-05-20T09:31:00.251Z,7.43
2023-05-20T09:33:32.009Z,7.40
2023-05-20T09:36:08.717Z,7.87
2023-05-20T09:38:39.833Z,8.10
2023-05-20T09:41:11.913Z,7.37
2023-05-20T09:43:41.020Z,7.80
2023-05-20T09:46:09.492Z,7.50
2023-05-20T09:48:39.796Z,8.40
2023-05-20T09:51:08.385Z,8.57
2023-05-20T09:53:37.043Z,8.07
2023-05-20T09:56:05.942Z,8.67
2023-05-20T09:58:35.179Z,7.20
2023-05-20T10:01:03.540Z,7.97
2023-05-20T10:03:32.151Z,7.47
2023-05-20T10:06:31.868Z,8.27
2023-05-20T10:09:29.781Z,8.30
2023-05-20T10:12:15.619Z,8.07
2023-05-20T10:14:51.049Z,8.23
2023-05-20T10:17:26.564Z,6.70
2023-05-20T10:19:59.709Z,7.77
2023-05-20T10:22:31.525Z,7.23
2023-05-20T10:25:01.277Z,7.33
2023-05-20T10:27:29.598Z,7.37
2023-05-20T10:29:58.406Z,6.90
2023-05-20T10:32:28.073Z,7.50
2023-05-20T10:35:00.898Z,8.70
2023-05-20T10:37:31.656Z,8.70
2023-05-20T10:40:11.138Z,8.00
2023-05-20T10:42:39.774Z,7.47
2023-05-20T10:45:10.469Z,8.17
2023-05-20T10:47:42.952Z,7.90
2023-05-20T10:50:27.599Z,7.90
2023-05-20T10:53:07.034Z,7.40
2023-05-20T10:55:38.762Z,7.20
2023-05-20T10:58:07.546Z,7.60
2023-05-20T11:00:37.416Z,7.17
2023-05-20T11:03:06.870Z,8.63
2023-05-20T11:05:35.368Z,8.10
2023-05-20T11:08:13.629Z,8.57
2023-05-20T11:10:48.775Z,7.63
2023-05-20T11:13:17.206Z,7.67
2023-05-20T11:15:45.677Z,8.20
2023-05-20T11:18:17.041Z,8.60
2023-05-20T11:20:47.926Z,7.10
2023-05-20T11:23:18.171Z,9.87
2023-05-20T11:25:46.539Z,7.43
2023-05-20T11:28:15.157Z,7.90
2023-05-20T11:30:44.012Z,7.33
2023-05-20T11:33:14.165Z,8.60
2023-05-20T11:35:46.656Z,8.80
2023-05-20T11:38:15.070Z,7.93
2023-05-20T11:40:50.969Z,7.90
2023-05-20T11:43:19.882Z,8.23
2023-05-20T11:45:49.693Z,8.47
2023-05-20T11:48:18.086Z,8.47
2023-05-20T11:50:48.255Z,8.13
2023-05-20T11:53:17.860Z,8.23
2023-05-20T11:55:48.370Z,7.90
2023-05-20T11:58:21.280Z,8.57
2023-05-20T12:00:54.716Z,7.97
2023-05-20T12:03:26.070Z,8.57
2023-05-20T12:05:54.641Z,7.73
2023-05-20T12:08:23.726Z,7.60
2023-05-20T12:10:53.534Z,7.50
2023-05-20T12:13:23.341Z,9.23
2023-05-20T12:15:51.719Z,7.87
2023-05-20T12:18:20.126Z,8.37
2023-05-20T12:20:48.409Z,8.43
2023-05-20T12:23:16.833Z,7.60
2023-05-20T12:25:45.731Z,8.80
2023-05-20T12:28:16.214Z,8.50
2023-05-20T12:30:44.594Z,8.03
2023-05-20T12:33:12.953Z,7.83
2023-05-20T12:35:42.178Z,8.63
2023-05-20T12:38:11.210Z,9.27
2023-05-20T12:40:39.576Z,8.80
2023-05-20T12:46:02.229Z,8.33
2023-05-20T12:48:30.610Z,8.37
2023-05-20T12:50:58.957Z,8.83
2023-05-20T12:53:27.353Z,7.40
2023-05-20T12:55:55.717Z,7.70
2023-05-20T12:58:24.129Z,8.87
2023-05-20T13:00:52.575Z,8.20
2023-05-20T13:03:22.436Z,8.57
2023-05-20T13:05:51.199Z,9.80
2023-05-20T13:08:19.604Z,7.10
2023-05-20T13:10:47.955Z,8.27
2023-05-20T13:13:21.373Z,8.70
2023-05-20T13:15:50.395Z,7.97
2023-05-20T13:18:19.505Z,7.33
2023-05-20T13:20:49.741Z,8.20
2023-05-20T13:23:18.092Z,8.17
2023-05-20T13:25:46.528Z,8.67
2023-05-20T13:28:18.862Z,7.63
2023-05-20T13:30:47.321Z,8.20
2023-05-20T13:33:15.780Z,7.03
2023-05-20T13:35:44.699Z,7.70
2023-05-20T13:38:14.416Z,7.33
2023-05-20T13:40:42.871Z,8.27
2023-05-20T13:43:11.210Z,8.17
2023-05-20T13:45:39.513Z,8.23
2023-05-20T13:48:08.226Z,7.43
2023-05-20T13:50:36.687Z,7.40
2023-05-20T13:53:05.144Z,7.53
2023-05-20T13:55:34.935Z,7.40
2023-05-20T13:58:03.294Z,8.50
2023-05-20T14:00:31.785Z,6.97
2023-05-20T14:03:01.247Z,7.40
2023-05-20T14:05:29.792Z,6.60
2023-05-20T14:07:58.236Z,7.50
2023-05-20T14:10:26.661Z,6.50
2023-05-20T14:12:58.851Z,6.20
2023-05-20T14:15:30.484Z,7.03
2023-05-20T14:17:58.811Z,6.80
2023-05-20T14:20:27.240Z,6.80
2023-05-20T14:22:55.810Z,6.73
2023-05-20T14:25:24.161Z,6.10
2023-05-20T14:27:52.465Z,6.80
2023-05-20T14:30:22.164Z,6.70
2023-05-20T14:32:50.534Z,6.80
2023-05-20T14:35:19.217Z,6.17
2023-05-20T14:37:47.686Z,6.50
2023-05-20T14:40:16.598Z,5.47
2023-05-20T14:42:44.927Z,6.03
2023-05-20T14:45:13.372Z,6.37
2023-05-20T14:47:43.134Z,5.83
2023-05-20T14:50:11.946Z,5.80
2023-05-20T14:52:40.547Z,6.20
2023-05-20T14:55:09.255Z,6.63
2023-05-20T14:57:37.615Z,5.30
2023-05-20T15:00:07.139Z,5.93
2023-05-20T15:02:35.705Z,5.70
2023-05-20T15:05:06.273Z,5.47
2023-05-20T15:07:34.711Z,6.20
2023-05-20T15:10:03.100Z,5.70
2023-05-20T15:12:31.426Z,6.30
2023-05-20T15:14:59.807Z,6.20
2023-05-20T15:17:28.145Z,5.73
2023-05-20T15:19:56.516Z,5.40
2023-05-20T15:22:26.214Z,5.28
2023-05-20T15:24:54.589Z,5.30
2023-05-20T15:27:22.937Z,6.20
2023-05-20T15:29:51.340Z,5.30
2023-05-20T15:32:20.093Z,6.00
2023-05-20T15:34:48.610Z,5.90
2023-05-20T15:37:17.163Z,5.87
2023-05-20T15:39:46.952Z,5.47
2023-05-20T15:42:18.236Z,6.00
2023-05-20T15:44:46.803Z,5.53
2023-05-20T15:47:15.209Z,5.03
2023-05-20T15:49:43.567Z,5.90
2023-05-20T15:52:12.053Z,5.77
2023-05-20T15:54:40.523Z,6.07
2023-05-20T15:57:10.247Z,5.73
2023-05-20T15:59:38.622Z,5.20
2023-05-20T16:02:08.822Z,6.10
2023-05-20T16:04:37.156Z,5.50
2023-05-20T16:07:06.017Z,5.57
2023-05-20T16:09:34.365Z,5.10
2023-05-20T16:12:03.318Z,5.43
2023-05-20T16:14:33.196Z,5.90
2023-05-20T16:17:01.527Z,5.73
2023-05-20T16:19:29.962Z,4.93
2023-05-20T16:21:58.426Z,5.07
2023-05-20T16:24:26.957Z,5.53
2023-05-20T16:26:55.346Z,5.60
2023-05-20T16:29:23.731Z,5.30
2023-05-20T16:31:53.627Z,5.20
2023-05-20T16:34:22.108Z,6.20
2023-05-20T16:36:50.464Z,5.17
2023-05-20T16:39:20.464Z,5.63
2023-05-20T16:41:48.802Z,5.57
2023-05-20T16:44:17.181Z,5.30
2023-05-20T16:46:45.629Z,5.40
2023-05-20T16:49:15.534Z,5.17
2023-05-20T16:51:44.107Z,6.17
2023-05-20T16:54:12.905Z,6.00
2023-05-20T16:56:41.343Z,6.10
2023-05-20T16:59:09.722Z,6.10
2023-05-20T17:01:39.095Z,6.40
2023-05-20T17:04:07.673Z,6.63
2023-05-20T17:06:39.813Z,6.60
2023-05-20T17:09:08.813Z,6.03
2023-05-20T17:11:37.199Z,6.07
2023-05-20T17:14:05.693Z,6.13
2023-05-20T17:16:34.086Z,7.10
2023-05-20T17:19:02.536Z,6.30
2023-05-20T17:21:31.157Z,7.30
2023-05-20T17:24:00.932Z,6.70
2023-05-20T17:26:29.264Z,6.33
2023-05-20T17:28:57.644Z,7.40
2023-05-20T17:31:26.016Z,6.80
2023-05-20T17:33:54.521Z,6.50
2023-05-20T17:36:23.094Z,7.30
2023-05-20T17:38:51.518Z,6.80
2023-05-20T17:41:21.892Z,6.93
2023-05-20T17:43:50.337Z,7.03
2023-05-20T17:46:18.692Z,6.30
2023-05-20T17:48:47.056Z,6.80
2023-05-20T17:51:15.542Z,6.50
2023-05-20T17:53:43.976Z,6.70
2023-05-20T17:56:12.308Z,6.23
2023-05-20T17:58:42.118Z,6.00
2023-05-20T18:01:16.466Z,6.27
2023-05-20T18:03:45.001Z,5.70
2023-05-20T18:06:13.577Z,6.80
2023-05-20T18:08:42.488Z,5.60
2023-05-20T18:11:10.945Z,7.20
2023-05-20T18:13:39.396Z,6.20
2023-05-20T18:16:10.469Z,6.00
2023-05-20T18:18:38.874Z,6.10
2023-05-20T18:21:07.866Z,6.60
2023-05-20T18:23:36.284Z,6.20
2023-05-20T18:26:07.032Z,5.90
2023-05-20T18:28:35.551Z,5.97
2023-05-20T18:31:03.901Z,6.50
2023-05-20T18:33:33.624Z,7.10
2023-05-20T18:36:01.926Z,6.53
2023-05-20T18:38:30.726Z,6.47
2023-05-20T18:40:59.033Z,6.17
2023-05-20T18:43:27.429Z,5.80
2023-05-20T18:45:55.921Z,6.67
2023-05-20T18:48:27.000Z,5.50
2023-05-20T18:50:58.566Z,6.50
2023-05-20T18:53:26.963Z,6.30
2023-05-20T18:55:56.063Z,6.07
2023-05-20T18:58:24.418Z,6.37
2023-05-20T19:00:52.757Z,6.00
2023-05-20T19:03:21.281Z,6.27
2023-05-20T19:05:49.741Z,6.23
2023-05-20T19:08:19.561Z,6.23
2023-05-20T19:10:47.870Z,7.53
2023-05-20T19:13:16.259Z,7.00
2023-05-20T19:15:44.723Z,6.77
2023-05-20T19:18:14.180Z,6.60
2023-05-20T19:20:42.469Z,6.90
2023-05-20T19:23:10.810Z,6.63
2023-05-20T19:25:40.586Z,6.50
2023-05-20T19:28:08.971Z,6.50
2023-05-20T19:30:37.438Z,5.80
2023-05-20T19:33:06.146Z,7.23
2023-05-20T19:35:34.851Z,6.57
2023-05-20T19:38:04.961Z,6.60
2023-05-20T19:40:33.465Z,7.00
2023-05-20T19:43:03.290Z,7.63
2023-05-20T19:45:32.231Z,6.37
2023-05-20T19:48:00.725Z,7.33
2023-05-20T19:50:29.068Z,6.30
2023-05-20T19:52:57.392Z,7.57
2023-05-20T19:55:25.854Z,7.37
2023-05-20T19:57:54.225Z,6.83
2023-05-20T20:00:24.240Z,7.63
2023-05-20T20:02:52.707Z,6.90
2023-05-20T20:05:23.643Z,7.20
2023-05-20T20:07:52.345Z,7.50
2023-05-20T20:10:20.744Z,7.57
2023-05-20T20:12:49.796Z,7.90
2023-05-20T20:15:20.348Z,7.80
2023-05-20T20:17:52.323Z,6.70
2023-05-20T20:20:21.013Z,7.37
2023-05-20T20:22:49.457Z,7.90
2023-05-20T20:25:18.605Z,7.43
2023-05-20T20:27:48.388Z,8.03
2023-05-20T20:30:16.813Z,10.30
2023-05-20T20:32:48.131Z,10.40
2023-05-20T20:35:18.031Z,9.30
2023-05-20T20:37:46.842Z,10.30
2023-05-20T20:40:15.278Z,8.70
2023-05-20T20:42:45.214Z,8.30
2023-05-20T20:45:15.100Z,7.73
2023-05-20T20:47:43.984Z,7.53
2023-05-20T20:50:12.623Z,8.50
2023-05-20T20:52:42.719Z,9.10
2023-05-20T20:55:11.844Z,7.77
2023-05-20T20:57:41.907Z,8.63
2023-05-20T21:00:17.127Z,7.77
2023-05-20T21:02:45.581Z,7.70
2023-05-20T21:05:14.487Z,8.30
2023-05-20T21:07:45.988Z,7.87
2023-05-20T21:10:14.439Z,8.10
2023-05-20T21:12:42.843Z,8.83
2023-05-20T21:15:14.990Z,9.40
2023-05-20T21:17:43.509Z,8.13
2023-05-20T21:20:13.415Z,8.30
2023-05-20T21:22:43.178Z,8.23
2023-05-20T21:25:11.628Z,9.23
2023-05-20T21:27:41.297Z,8.20
2023-05-20T21:30:11.168Z,8.37
2023-05-20T21:32:39.780Z,8.20
2023-05-20T21:35:09.913Z,8.70
2023-05-20T21:37:38.290Z,8.90
2023-05-20T21:40:09.999Z,8.97
2023-05-20T21:42:38.468Z,9.23
2023-05-20T21:45:08.919Z,8.67
2023-05-20T21:47:37.283Z,9.23
2023-05-20T21:50:07.377Z,8.07
2023-05-20T21:52:35.807Z,9.23
2023-05-20T21:55:04.149Z,8.80
2023-05-20T21:57:33.989Z,8.90
2023-05-20T22:00:02.398Z,9.43
2023-05-20T22:02:31.248Z,9.67
2023-05-20T22:05:00.357Z,8.93
2023-05-20T22:07:28.766Z,9.87
2023-05-20T22:09:57.541Z,9.23
2023-05-20T22:12:25.845Z,10.00
2023-05-20T22:14:56.158Z,10.50
2023-05-20T22:17:24.986Z,9.93
2023-05-20T22:19:54.121Z,9.70
2023-05-20T22:22:22.520Z,10.67
2023-05-20T22:24:50.919Z,10.30
2023-05-20T22:27:19.315Z,10.23
2023-05-20T22:29:47.698Z,10.23
2023-05-20T22:32:17.570Z,11.27
2023-05-20T22:34:46.485Z,11.60
2023-05-20T22:37:15.955Z,11.33
2023-05-20T22:39:44.247Z,12.50
2023-05-20T22:42:12.817Z,12.40
2023-05-20T22:44:41.507Z,12.13
2023-05-20T22:47:13.468Z,12.77
2023-05-20T22:49:43.150Z,12.80
2023-05-20T22:52:11.727Z,12.73
2023-05-20T22:54:40.061Z,13.10
2023-05-20T22:57:08.503Z,13.70
2023-05-20T22:59:36.821Z,13.40
2023-05-20T23:02:06.300Z,13.50
2023-05-20T23:04:34.994Z,12.87
2023-05-20T23:07:05.454Z,13.17
2023-05-20T23:09:33.799Z,12.80
2023-05-20T23:12:02.160Z,12.53
2023-05-20T23:14:30.491Z,14.30
2023-05-20T23:16:58.865Z,13.00
2023-05-20T23:19:27.444Z,13.53
2023-05-20T23:21:55.868Z,13.43
2023-05-20T23:24:25.545Z,14.73
2023-05-20T23:26:54.601Z,14.50
2023-05-20T23:29:23.167Z,13.47
2023-05-20T23:31:51.645Z,13.53
2023-05-20T23:34:20.102Z,14.50
2023-05-20T23:36:49.959Z,13.53
2023-05-20T23:39:18.614Z,12.77
2023-05-20T23:41:48.482Z,14.27
2023-05-20T23:44:16.838Z,14.37
2023-05-20T23:46:45.225Z,13.70
2023-05-20T23:49:13.976Z,12.90
2023-05-20T23:51:42.313Z,14.10
2023-05-20T23:54:10.646Z,13.30
2023-05-20T23:56:39.130Z,14.90
2023-05-20T23:59:08.864Z,14.40
